Adams Gardens, Texas
Current Conditions -  °F | °C
As of 8:52 PM on Monday 20 Oct 2014 (Local Time) from KHRL Reporting Station
Clear Clear  
Wind Chill: 75°   Ceiling: Unl
Heat Index: 75°   Visibility: 10mi
Dew Point: 72°   Wind: 8mph
Humidity: 90%   Direction: 50°NE
Pressure: 29.93"   Gusts: NA
Location:  26.2089°N, 97.6849°W
Report Text: KHRL 210152Z 05007KT 10SM CLR 24/22 A2993 RMK AO2 SLP134 T02390222
Loading
Personal Weather Stations






























Interactive Weather Map
Tropical Storm Tracking
New forecast layout! Learn more

10-Day Weather Forecast

Advertisements
Track Severe Weather on mobile